createdAt,value
2018-12-26T00:00:25.213Z,17.57
2018-12-26T00:02:53.083Z,18.57
2018-12-26T00:05:20.668Z,17.90
2018-12-26T00:07:48.425Z,20.10
2018-12-26T00:10:16.231Z,17.77
2018-12-26T00:12:44.037Z,19.20
2018-12-26T00:15:12.319Z,17.53
2018-12-26T00:17:40.305Z,18.03
2018-12-26T00:20:07.980Z,18.23
2018-12-26T00:22:35.646Z,18.20
2018-12-26T00:25:06.547Z,19.70
2018-12-26T00:27:34.200Z,16.67
2018-12-26T00:30:02.116Z,19.70
2018-12-26T00:32:30.123Z,16.80
2018-12-26T00:35:04.184Z,18.90
2018-12-26T00:37:33.882Z,18.00
2018-12-26T00:40:01.613Z,16.57
2018-12-26T00:42:29.116Z,17.90
2018-12-26T00:44:56.855Z,18.43
2018-12-26T00:47:25.718Z,18.57
2018-12-26T00:49:54.535Z,18.60
2018-12-26T00:52:24.581Z,17.27
2018-12-26T00:54:52.250Z,19.83
2018-12-26T00:57:29.161Z,18.87
2018-12-26T00:59:59.992Z,17.60
2018-12-26T01:02:33.223Z,20.43
2018-12-26T01:05:04.598Z,17.83
2018-12-26T01:07:32.326Z,20.97
2018-12-26T01:10:04.267Z,19.87
2018-12-26T01:12:33.832Z,21.93
2018-12-26T01:15:03.027Z,25.23
2018-12-26T01:17:30.907Z,18.97
2018-12-26T01:19:58.502Z,21.17
2018-12-26T01:22:26.167Z,22.10
2018-12-26T01:24:54.125Z,20.07
2018-12-26T01:27:21.775Z,19.50
2018-12-26T01:29:50.630Z,21.70
2018-12-26T01:32:25.006Z,20.80
2018-12-26T01:34:53.910Z,21.57
2018-12-26T01:37:24.210Z,20.43
2018-12-26T01:39:51.907Z,21.33
2018-12-26T01:42:20.493Z,24.30
2018-12-26T01:44:49.379Z,20.00
2018-12-26T01:47:17.391Z,21.13
2018-12-26T01:49:46.212Z,19.83
2018-12-26T01:52:15.179Z,21.77
2018-12-26T01:54:42.793Z,20.17
2018-12-26T01:57:10.418Z,23.67
2018-12-26T01:59:40.780Z,23.97
2018-12-26T02:02:08.681Z,22.95
2018-12-26T02:04:36.374Z,25.08
2018-12-26T02:07:05.719Z,26.42
2018-12-26T02:09:33.366Z,23.92
2018-12-26T02:12:01.203Z,23.02
2018-12-26T02:14:28.846Z,24.50
2018-12-26T02:16:56.812Z,23.25
2018-12-26T02:19:24.668Z,27.10
2018-12-26T02:21:52.286Z,21.15
2018-12-26T02:24:20.245Z,23.30
2018-12-26T02:26:48.111Z,24.07
2018-12-26T02:29:15.987Z,23.73
2018-12-26T02:31:43.842Z,23.40
2018-12-26T02:34:11.504Z,23.33
2018-12-26T02:36:47.269Z,23.13
2018-12-26T02:39:17.497Z,28.07
2018-12-26T02:41:45.459Z,24.40
2018-12-26T02:44:13.178Z,23.75
2018-12-26T02:46:40.861Z,24.53
2018-12-26T02:49:08.453Z,22.65
2018-12-26T02:51:36.420Z,23.10
2018-12-26T02:54:04.227Z,25.85
2018-12-26T02:56:47.763Z,25.90
2018-12-26T02:59:11.971Z,25.32
2018-12-26T03:01:39.684Z,23.87
2018-12-26T03:04:07.345Z,23.65
2018-12-26T03:06:35.162Z,28.27
2018-12-26T03:09:04.751Z,26.57
2018-12-26T03:11:32.366Z,24.20
2018-12-26T03:14:03.396Z,22.87
2018-12-26T03:16:31.038Z,27.45
2018-12-26T03:18:58.691Z,28.25
2018-12-26T03:21:26.476Z,27.40
2018-12-26T03:23:55.132Z,27.30
2018-12-26T03:26:22.749Z,25.63
2018-12-26T03:28:50.413Z,28.10
2018-12-26T03:31:18.008Z,27.30
2018-12-26T03:33:45.794Z,27.93
2018-12-26T03:36:14.765Z,28.00
2018-12-26T03:38:42.398Z,24.90
2018-12-26T03:41:10.014Z,28.12
2018-12-26T03:43:37.961Z,27.73
2018-12-26T03:46:06.984Z,27.17
2018-12-26T03:48:35.634Z,27.50
2018-12-26T03:51:03.530Z,25.80
2018-12-26T03:53:31.135Z,27.00
2018-12-26T03:55:58.768Z,27.42
2018-12-26T03:58:26.797Z,25.17
2018-12-26T04:00:54.379Z,26.80
2018-12-26T04:03:22.148Z,27.20
2018-12-26T04:05:51.933Z,31.02
2018-12-26T04:08:19.846Z,27.02
2018-12-26T04:10:47.876Z,27.15
2018-12-26T04:13:15.932Z,27.77
2018-12-26T04:15:44.951Z,28.80
2018-12-26T04:18:12.644Z,26.85
2018-12-26T04:20:41.410Z,28.15
2018-12-26T04:23:09.088Z,26.62
2018-12-26T04:25:41.546Z,32.25
2018-12-26T04:28:09.193Z,26.82
2018-12-26T04:30:36.888Z,29.98
2018-12-26T04:33:04.661Z,28.75
2018-12-26T04:35:32.574Z,29.65
2018-12-26T04:38:00.254Z,32.30
2018-12-26T04:40:27.845Z,29.98
2018-12-26T04:42:55.673Z,30.23
2018-12-26T04:45:23.314Z,31.85
2018-12-26T04:47:50.945Z,29.37
2018-12-26T04:50:24.571Z,28.87
2018-12-26T04:52:54.639Z,37.70
2018-12-26T04:55:22.320Z,34.03
2018-12-26T04:57:51.840Z,41.65
2018-12-26T05:00:19.372Z,40.03
2018-12-26T05:02:46.987Z,39.53
2018-12-26T05:05:14.832Z,52.23
2018-12-26T05:07:42.396Z,48.83
2018-12-26T05:10:16.397Z,52.33
2018-12-26T05:12:45.499Z,57.15
2018-12-26T05:15:15.452Z,81.55
2018-12-26T05:17:43.197Z,45.40
2018-12-26T05:20:11.092Z,104.63
2018-12-26T05:22:43.967Z,77.15
2018-12-26T05:25:11.768Z,99.55
2018-12-26T05:27:39.676Z,185.40
2018-12-26T05:30:08.697Z,84.80
2018-12-26T05:32:36.286Z,68.25
2018-12-26T05:35:04.126Z,97.08
2018-12-26T05:37:31.688Z,90.42
2018-12-26T05:40:00.438Z,81.30
2018-12-26T05:42:28.224Z,101.58
2018-12-26T05:44:55.884Z,104.38
2018-12-26T05:47:23.577Z,78.52
2018-12-26T05:49:52.287Z,71.77
2018-12-26T05:52:19.954Z,80.30
2018-12-26T05:54:47.641Z,71.02
2018-12-26T05:57:16.834Z,64.75
2018-12-26T05:59:44.424Z,71.50
2018-12-26T06:02:12.017Z,63.98
2018-12-26T06:04:39.653Z,63.40
2018-12-26T06:07:07.362Z,61.88
2018-12-26T06:09:36.921Z,58.68
2018-12-26T06:12:04.539Z,66.37
2018-12-26T06:14:32.246Z,64.77
2018-12-26T06:16:59.823Z,69.75
2018-12-26T06:19:27.460Z,66.17
2018-12-26T06:21:55.097Z,63.28
2018-12-26T06:24:22.716Z,70.35
2018-12-26T06:26:50.761Z,64.25
2018-12-26T06:29:18.353Z,64.65
2018-12-26T06:31:46.006Z,61.65
2018-12-26T06:34:13.991Z,62.80
2018-12-26T06:36:41.512Z,61.10
2018-12-26T06:39:09.191Z,68.42
2018-12-26T06:41:37.218Z,58.52
2018-12-26T06:44:04.803Z,63.42
2018-12-26T06:46:32.369Z,64.40
2018-12-26T06:49:00.484Z,64.40
2018-12-26T06:51:28.149Z,55.00
2018-12-26T06:53:55.756Z,59.80
2018-12-26T06:56:23.672Z,61.80
2018-12-26T06:58:51.292Z,52.40
2018-12-26T07:01:18.972Z,45.50
2018-12-26T07:03:46.815Z,51.28
2018-12-26T07:06:14.435Z,56.53
2018-12-26T07:08:42.083Z,47.15
2018-12-26T07:11:09.881Z,54.42
2018-12-26T07:13:37.613Z,53.13
2018-12-26T07:16:05.225Z,50.55
2018-12-26T07:18:36.404Z,53.95
2018-12-26T07:21:04.012Z,57.25
2018-12-26T07:23:31.709Z,53.92
2018-12-26T07:25:59.765Z,53.45
2018-12-26T07:28:27.610Z,49.88
2018-12-26T07:30:56.601Z,57.10
2018-12-26T07:33:24.427Z,56.55
2018-12-26T07:35:52.031Z,53.78
2018-12-26T07:38:19.629Z,55.17
2018-12-26T07:40:50.843Z,54.95
2018-12-26T07:43:18.432Z,48.87
2018-12-26T07:45:46.053Z,54.15
2018-12-26T07:48:14.101Z,47.03
2018-12-26T07:50:41.945Z,48.95
2018-12-26T07:53:13.657Z,46.48
2018-12-26T07:55:41.576Z,43.48
2018-12-26T07:58:17.428Z,41.92
2018-12-26T08:00:38.686Z,38.17
2018-12-26T08:03:07.662Z,44.53
2018-12-26T08:05:35.433Z,39.78
2018-12-26T08:08:02.976Z,38.28
2018-12-26T08:10:32.813Z,40.33
2018-12-26T08:13:00.425Z,38.10
2018-12-26T08:15:28.149Z,43.90
2018-12-26T08:17:55.982Z,36.47
2018-12-26T08:20:24.581Z,37.33
2018-12-26T08:22:52.255Z,38.37
2018-12-26T08:25:20.287Z,42.67
2018-12-26T08:27:47.965Z,36.42
2018-12-26T08:30:15.630Z,38.00
2018-12-26T08:32:43.813Z,33.67
2018-12-26T08:35:26.460Z,37.58
2018-12-26T08:38:00.764Z,35.78
2018-12-26T08:40:28.381Z,32.95
2018-12-26T08:42:55.877Z,33.25
2018-12-26T08:45:23.606Z,33.30
2018-12-26T08:47:51.288Z,31.57
2018-12-26T08:50:18.949Z,33.70
2018-12-26T08:52:46.675Z,33.13
2018-12-26T08:55:14.271Z,35.55
2018-12-26T08:57:41.915Z,34.37
2018-12-26T09:00:09.921Z,37.83
2018-12-26T09:02:37.663Z,37.85
2018-12-26T09:05:08.258Z,33.95
2018-12-26T09:07:36.597Z,37.13
2018-12-26T09:10:04.582Z,41.40
2018-12-26T09:12:32.521Z,41.35
2018-12-26T09:15:00.656Z,43.50
2018-12-26T09:17:28.732Z,39.47
2018-12-26T09:19:57.496Z,35.13
2018-12-26T09:22:28.116Z,38.65
2018-12-26T09:24:58.360Z,39.50
2018-12-26T09:27:25.994Z,39.85
2018-12-26T09:29:54.961Z,40.07
2018-12-26T09:32:24.180Z,41.17
2018-12-26T09:34:54.292Z,34.03
2018-12-26T09:37:23.545Z,35.97
2018-12-26T09:39:51.217Z,33.33
2018-12-26T09:42:21.375Z,36.95
2018-12-26T09:44:54.307Z,38.10
2018-12-26T09:47:20.333Z,36.97
2018-12-26T09:49:54.184Z,32.63
2018-12-26T09:52:24.124Z,37.50
2018-12-26T09:54:51.685Z,33.33
2018-12-26T09:57:19.812Z,33.23
2018-12-26T09:59:48.457Z,37.20
2018-12-26T10:02:19.101Z,30.73
2018-12-26T10:04:48.483Z,33.90
2018-12-26T10:07:16.092Z,31.70
2018-12-26T10:09:43.931Z,32.70
2018-12-26T10:12:11.649Z,32.07
2018-12-26T10:14:39.584Z,31.33
2018-12-26T10:17:07.266Z,31.63
2018-12-26T10:19:37.499Z,28.17
2018-12-26T10:22:06.776Z,30.93
2018-12-26T10:24:34.628Z,30.08
2018-12-26T10:27:06.199Z,28.53
2018-12-26T10:29:33.745Z,30.83
2018-12-26T10:32:01.334Z,28.93
2018-12-26T10:34:29.061Z,27.43
2018-12-26T10:36:56.861Z,33.47
2018-12-26T10:39:24.353Z,30.43
2018-12-26T10:41:52.061Z,27.57
2018-12-26T10:44:23.885Z,28.40
2018-12-26T10:46:51.566Z,27.90
2018-12-26T10:49:19.225Z,35.53
2018-12-26T10:51:46.849Z,27.53
2018-12-26T10:54:14.441Z,25.17
2018-12-26T10:56:48.987Z,29.27
2018-12-26T10:59:16.565Z,29.70
2018-12-26T11:01:45.704Z,27.83
2018-12-26T11:04:13.668Z,26.63
2018-12-26T11:06:47.369Z,25.07
2018-12-26T11:09:15.046Z,27.43
2018-12-26T11:12:30.592Z,28.47
2018-12-26T11:14:52.808Z,26.40
2018-12-26T11:17:20.534Z,29.40
2018-12-26T11:19:48.151Z,25.13
2018-12-26T11:22:23.449Z,31.33
2018-12-26T11:24:51.233Z,28.03
2018-12-26T11:27:18.793Z,28.97
2018-12-26T11:29:46.449Z,25.87
2018-12-26T11:32:18.803Z,29.27
2018-12-26T11:34:46.421Z,31.70
2018-12-26T11:37:14.009Z,27.27
2018-12-26T11:39:42.751Z,28.83
2018-12-26T11:42:10.295Z,26.07
2018-12-26T11:44:40.494Z,30.07
2018-12-26T11:47:13.874Z,29.53
2018-12-26T11:49:41.868Z,30.33
2018-12-26T11:52:15.368Z,29.13
2018-12-26T11:54:49.455Z,29.53
2018-12-26T11:57:17.266Z,31.00
2018-12-26T11:59:51.498Z,27.87
2018-12-26T12:02:22.009Z,26.43
2018-12-26T12:04:49.619Z,29.73
2018-12-26T12:07:17.457Z,30.83
2018-12-26T12:09:47.981Z,32.50
2018-12-26T12:12:18.663Z,27.20
2018-12-26T12:14:48.678Z,27.33
2018-12-26T12:17:16.390Z,31.57
2018-12-26T12:19:45.165Z,30.13
2018-12-26T12:22:14.439Z,31.03
2018-12-26T12:24:43.743Z,26.10
2018-12-26T12:27:11.387Z,34.63
2018-12-26T12:29:39.113Z,31.93
2018-12-26T12:32:11.149Z,30.67
2018-12-26T12:34:38.760Z,33.23
2018-12-26T12:37:09.523Z,35.07
2018-12-26T12:39:37.107Z,33.50
2018-12-26T12:42:04.801Z,34.87
2018-12-26T12:44:32.579Z,34.13
2018-12-26T12:47:00.282Z,34.40
2018-12-26T12:49:28.031Z,37.03
2018-12-26T12:51:56.308Z,34.53
2018-12-26T12:54:24.051Z,36.57
2018-12-26T12:56:51.656Z,33.73
2018-12-26T12:59:19.255Z,34.30
2018-12-26T13:01:47.000Z,31.87
2018-12-26T13:04:14.603Z,33.57
2018-12-26T13:06:42.567Z,32.23
2018-12-26T13:09:12.249Z,30.97
2018-12-26T13:11:39.780Z,29.50
2018-12-26T13:14:07.429Z,33.13
2018-12-26T13:16:35.052Z,32.50
2018-12-26T13:19:07.146Z,30.47
2018-12-26T13:21:35.049Z,31.93
2018-12-26T13:24:02.798Z,30.80
2018-12-26T13:26:30.622Z,29.03
2018-12-26T13:29:03.157Z,28.13
2018-12-26T13:31:33.326Z,31.57
2018-12-26T13:34:01.009Z,29.67
2018-12-26T13:36:28.707Z,29.63
2018-12-26T13:38:58.333Z,31.33
2018-12-26T13:41:28.741Z,30.50
2018-12-26T13:43:56.673Z,32.10
2018-12-26T13:46:24.499Z,32.37
2018-12-26T13:48:52.411Z,25.63
2018-12-26T13:51:20.312Z,28.83
2018-12-26T13:53:48.071Z,26.93
2018-12-26T13:56:15.630Z,28.60
2018-12-26T13:58:49.883Z,29.37
2018-12-26T14:01:17.729Z,27.63
2018-12-26T14:03:45.403Z,23.77
2018-12-26T14:06:16.118Z,27.47
2018-12-26T14:08:46.189Z,28.77
2018-12-26T14:11:13.826Z,28.40
2018-12-26T14:13:42.207Z,28.00
2018-12-26T14:16:09.799Z,27.20
2018-12-26T14:18:40.154Z,27.63
2018-12-26T14:21:09.703Z,30.52
2018-12-26T14:23:37.272Z,25.57
2018-12-26T14:26:11.026Z,29.27
2018-12-26T14:28:50.479Z,25.77
2018-12-26T14:31:21.260Z,28.33
2018-12-26T14:33:54.177Z,28.47
2018-12-26T14:36:26.220Z,26.63
2018-12-26T14:38:59.693Z,30.17
2018-12-26T14:41:27.285Z,25.70
2018-12-26T14:43:55.289Z,27.80
2018-12-26T14:46:23.207Z,28.80
2018-12-26T14:48:53.534Z,29.47
2018-12-26T14:51:26.405Z,30.27
2018-12-26T14:53:50.600Z,31.10
2018-12-26T14:56:18.244Z,30.30
2018-12-26T14:58:45.848Z,30.63
2018-12-26T15:01:13.561Z,33.07
2018-12-26T15:03:44.150Z,32.63
2018-12-26T15:06:15.460Z,30.60
2018-12-26T15:08:43.728Z,35.27
2018-12-26T15:11:11.698Z,32.30
2018-12-26T15:13:39.280Z,32.50
2018-12-26T15:16:12.237Z,32.23
2018-12-26T15:18:40.083Z,31.50
2018-12-26T15:21:07.897Z,32.00
2018-12-26T15:23:37.410Z,32.70
2018-12-26T15:26:09.974Z,31.47
2018-12-26T15:28:37.541Z,29.00
2018-12-26T15:31:05.294Z,28.17
2018-12-26T15:33:32.867Z,31.07
2018-12-26T15:36:02.325Z,29.20
2018-12-26T15:38:30.038Z,28.03
2018-12-26T15:40:58.852Z,28.67
2018-12-26T15:43:26.546Z,30.47
2018-12-26T15:45:54.259Z,31.03
2018-12-26T15:48:24.126Z,30.47
2018-12-26T15:50:51.787Z,28.40
2018-12-26T15:53:19.518Z,29.27
2018-12-26T15:55:47.211Z,28.77
2018-12-26T15:58:15.028Z,30.87
2018-12-26T16:00:42.698Z,30.57
2018-12-26T16:03:10.393Z,29.43
2018-12-26T16:05:38.189Z,30.57
2018-12-26T16:08:05.937Z,30.27
2018-12-26T16:10:33.512Z,34.00
2018-12-26T16:13:03.361Z,29.37
2018-12-26T16:15:31.252Z,33.93
2018-12-26T16:18:01.102Z,33.10
2018-12-26T16:20:28.724Z,31.50
2018-12-26T16:22:56.408Z,33.67
2018-12-26T16:25:24.848Z,34.03
2018-12-26T16:27:52.425Z,33.90
2018-12-26T16:30:22.165Z,33.47
2018-12-26T16:32:49.848Z,35.47
2018-12-26T16:36:35.653Z,33.10
2018-12-26T16:39:04.857Z,32.60
2018-12-26T16:41:32.468Z,36.53
2018-12-26T16:44:01.133Z,34.90
2018-12-26T16:46:28.746Z,34.27
2018-12-26T16:48:58.220Z,36.33
2018-12-26T16:51:25.937Z,33.93
2018-12-26T16:53:53.508Z,33.30
2018-12-26T16:56:21.306Z,34.53
2018-12-26T16:58:49.179Z,35.00
2018-12-26T17:01:18.706Z,36.87
2018-12-26T17:03:46.865Z,36.67
2018-12-26T17:06:17.458Z,36.27
2018-12-26T17:08:45.357Z,33.60
2018-12-26T17:11:13.069Z,33.93
2018-12-26T17:13:40.818Z,35.13
2018-12-26T17:16:08.715Z,33.83
2018-12-26T17:18:36.503Z,35.87
2018-12-26T17:21:04.088Z,36.53
2018-12-26T17:23:34.273Z,34.87
2018-12-26T17:26:02.383Z,37.40
2018-12-26T17:28:47.261Z,35.37
2018-12-26T17:31:15.306Z,37.55
2018-12-26T17:33:43.036Z,35.45
2018-12-26T17:36:10.641Z,34.43
2018-12-26T17:38:38.242Z,34.77
2018-12-26T17:41:08.334Z,36.23
2018-12-26T17:43:38.863Z,35.17
2018-12-26T17:46:07.683Z,38.37
2018-12-26T17:48:37.554Z,32.73
2018-12-26T17:51:17.459Z,41.00
2018-12-26T17:54:13.427Z,37.00
2018-12-26T17:57:00.240Z,39.33
2018-12-26T18:00:14.502Z,35.60
2018-12-26T18:02:45.041Z,34.93
2018-12-26T18:05:12.828Z,32.63
2018-12-26T18:07:40.586Z,37.03
2018-12-26T18:10:14.836Z,38.77
2018-12-26T18:12:42.542Z,33.10
2018-12-26T18:15:10.909Z,34.47
2018-12-26T18:17:39.086Z,35.30
2018-12-26T18:20:11.612Z,31.47
2018-12-26T18:22:39.262Z,35.30
2018-12-26T18:25:07.151Z,31.13
2018-12-26T18:27:44.391Z,32.63
2018-12-26T18:30:16.045Z,31.07
2018-12-26T18:33:14.296Z,31.20
2018-12-26T18:35:47.770Z,35.20
2018-12-26T18:38:15.467Z,32.80
2018-12-26T18:40:45.208Z,33.00
2018-12-26T18:43:15.771Z,33.40
2018-12-26T18:45:43.529Z,32.65
2018-12-26T18:48:22.645Z,32.07
2018-12-26T18:50:50.387Z,34.07
2018-12-26T18:53:17.996Z,30.20
2018-12-26T18:55:48.454Z,35.13
2018-12-26T18:58:17.915Z,34.63
2018-12-26T19:00:47.531Z,35.17
2018-12-26T19:03:19.554Z,33.27
2018-12-26T19:05:47.399Z,35.87
2018-12-26T19:08:20.929Z,35.47
2018-12-26T19:10:49.248Z,32.90
2018-12-26T19:13:19.257Z,31.83
2018-12-26T19:15:50.072Z,32.30
2018-12-26T19:18:22.078Z,34.20
2018-12-26T19:20:51.741Z,29.77
2018-12-26T19:23:22.308Z,34.70
2018-12-26T19:25:50.902Z,37.13
2018-12-26T19:28:19.711Z,35.50
2018-12-26T19:30:47.555Z,38.07
2018-12-26T19:33:24.392Z,62.37
2018-12-26T19:35:53.774Z,44.07
2018-12-26T19:38:21.513Z,42.67
2018-12-26T19:40:49.116Z,34.07
2018-12-26T19:43:16.854Z,34.93
2018-12-26T19:45:44.509Z,31.17
2018-12-26T19:48:14.443Z,36.57
2018-12-26T19:50:48.432Z,34.33
2018-12-26T19:53:41.680Z,29.07
2018-12-26T19:56:10.977Z,34.27
2018-12-26T19:58:43.879Z,31.40
2018-12-26T20:01:11.765Z,31.73
2018-12-26T20:03:46.386Z,31.63
2018-12-26T20:06:15.372Z,33.47
2018-12-26T20:08:44.321Z,31.70
2018-12-26T20:11:14.826Z,35.67
2018-12-26T20:13:42.461Z,36.37
2018-12-26T20:16:10.099Z,30.60
2018-12-26T20:18:38.208Z,33.93
2018-12-26T20:21:05.880Z,32.67
2018-12-26T20:23:33.801Z,34.60
2018-12-26T20:26:03.432Z,30.00
2018-12-26T20:28:32.816Z,32.17
2018-12-26T20:31:05.365Z,29.10
2018-12-26T20:33:33.444Z,30.40
2018-12-26T20:36:03.925Z,30.50
2018-12-26T20:38:34.758Z,30.83
2018-12-26T20:41:02.661Z,31.57
2018-12-26T20:43:30.451Z,33.70
2018-12-26T20:46:02.189Z,36.17
2018-12-26T20:48:29.809Z,30.53
2018-12-26T20:51:05.507Z,31.80
2018-12-26T20:53:33.226Z,32.27
2018-12-26T20:56:01.064Z,29.87
2018-12-26T20:58:28.944Z,30.53
2018-12-26T21:00:59.873Z,29.97
2018-12-26T21:03:28.024Z,28.27
2018-12-26T21:06:04.697Z,29.17
2018-12-26T21:08:32.592Z,31.33
2018-12-26T21:11:02.959Z,29.60
2018-12-26T21:13:32.691Z,30.03
2018-12-26T21:16:03.038Z,29.20
2018-12-26T21:18:31.057Z,30.90
2018-12-26T21:20:58.780Z,27.97
2018-12-26T21:23:31.533Z,30.87
2018-12-26T21:26:01.174Z,26.20
2018-12-26T21:28:29.246Z,29.07
2018-12-26T21:30:56.804Z,30.27
2018-12-26T21:33:28.943Z,28.60
2018-12-26T21:35:58.226Z,27.57
2018-12-26T21:38:26.568Z,26.77
2018-12-26T21:40:54.206Z,28.63
2018-12-26T21:43:25.640Z,28.00
2018-12-26T21:45:53.400Z,27.00
2018-12-26T21:48:20.981Z,28.83
2018-12-26T21:50:48.746Z,29.23
2018-12-26T21:53:16.362Z,29.03
2018-12-26T21:55:48.764Z,28.70
2018-12-26T21:58:19.392Z,41.10
2018-12-26T22:00:48.918Z,28.57
2018-12-26T22:03:16.530Z,28.90
2018-12-26T22:05:47.819Z,28.13
2018-12-26T22:08:21.536Z,24.13
2018-12-26T22:10:49.109Z,27.70
2018-12-26T22:13:18.989Z,26.63
2018-12-26T22:15:47.597Z,25.10
2018-12-26T22:18:17.103Z,30.53
2018-12-26T22:20:44.992Z,29.07
2018-12-26T22:23:13.770Z,28.13
2018-12-26T22:25:41.328Z,29.80
2018-12-26T22:28:09.205Z,24.57
2018-12-26T22:30:42.139Z,24.77
2018-12-26T22:33:09.743Z,28.73
2018-12-26T22:35:37.648Z,24.83
2018-12-26T22:38:05.551Z,23.03
2018-12-26T22:40:33.354Z,24.10
2018-12-26T22:43:01.279Z,27.03
2018-12-26T22:45:29.976Z,22.03
2018-12-26T22:48:01.189Z,26.87
2018-12-26T22:50:30.628Z,24.33
2018-12-26T22:53:03.113Z,24.83
2018-12-26T22:55:30.692Z,21.33
2018-12-26T22:57:58.716Z,22.67
2018-12-26T23:00:43.541Z,23.47
2018-12-26T23:03:11.382Z,23.60
2018-12-26T23:05:40.753Z,25.07
2018-12-26T23:08:08.322Z,22.30
2018-12-26T23:10:36.067Z,21.57
2018-12-26T23:13:03.655Z,21.97
2018-12-26T23:15:31.246Z,22.60
2018-12-26T23:18:01.459Z,20.03
2018-12-26T23:20:29.329Z,21.70
2018-12-26T23:22:56.962Z,23.63
2018-12-26T23:25:24.666Z,20.57
2018-12-26T23:27:52.672Z,20.30
2018-12-26T23:30:20.258Z,22.47
2018-12-26T23:32:51.129Z,23.47
2018-12-26T23:35:18.763Z,23.73
2018-12-26T23:37:46.622Z,25.43
2018-12-26T23:40:14.591Z,25.97
2018-12-26T23:42:46.274Z,22.33
2018-12-26T23:45:14.950Z,22.03
2018-12-26T23:47:43.031Z,25.33
2018-12-26T23:50:10.648Z,24.90
2018-12-26T23:52:38.443Z,24.27
2018-12-26T23:55:08.011Z,24.20
2018-12-26T23:57:40.101Z,24.20
